Time;durP1;ratioP1;P1;durP2;ratioP2;P2;SDS_P1;SDS_P2;PMS_P1;PMS_P2;Temp;Humidity;BMP_temperature;BMP_pressure;BME280_temperature;BME280_humidity;BME280_pressure;Samples;Min_cycle;Max_cycle;Signal;HPM_P1;HPM_P2
2021/07/19 00:00:18;;;;;;;20.80;4.58;;;;;;;18.88;72.84;98778.69;2247135;78;21478;-63
2021/07/19 00:03:20;;;;;;;17.45;4.85;;;;;;;18.89;73.11;98776.86;2214543;78;21017;-62
2021/07/19 00:06:21;;;;;;;16.10;5.12;;;;;;;18.87;73.12;98775.18;2253311;78;21502;-63
2021/07/19 00:09:22;;;;;;;16.60;4.90;;;;;;;18.85;73.16;98783.77;2206572;80;21550;-63
2021/07/19 00:12:22;;;;;;;17.70;4.50;;;;;;;18.83;73.41;98780.44;2187582;80;21035;-63
2021/07/19 00:15:23;;;;;;;19.87;4.90;;;;;;;18.82;73.82;98788.05;2204092;80;20992;-63
2021/07/19 00:18:23;;;;;;;15.68;4.20;;;;;;;18.82;73.45;98781.89;2215916;80;21064;-63
2021/07/19 00:21:24;;;;;;;16.35;4.28;;;;;;;18.81;73.36;98784.22;2194473;80;21033;-63
2021/07/19 00:24:24;;;;;;;16.95;4.42;;;;;;;18.76;73.44;98787.80;2208739;78;21535;-62
2021/07/19 00:27:25;;;;;;;18.90;4.20;;;;;;;18.72;73.79;98792.58;2215127;79;21024;-62
2021/07/19 00:30:25;;;;;;;17.40;4.42;;;;;;;18.66;74.09;98789.16;2247548;78;21028;-62
2021/07/19 00:33:26;;;;;;;15.13;4.25;;;;;;;18.65;73.78;98790.17;2217076;80;21032;-63
2021/07/19 00:36:26;;;;;;;16.20;4.08;;;;;;;18.64;74.27;98793.30;2216769;80;21028;-63
2021/07/19 00:39:27;;;;;;;17.30;4.70;;;;;;;18.62;74.22;98804.57;2209266;80;21153;-63
2021/07/19 00:42:27;;;;;;;16.65;4.45;;;;;;;18.62;74.11;98807.23;2216036;80;21503;-63
2021/07/19 00:45:28;;;;;;;19.17;4.80;;;;;;;18.57;74.56;98801.50;2214164;79;21051;-62
2021/07/19 00:48:29;;;;;;;17.35;4.28;;;;;;;18.49;73.96;98811.53;2213874;80;21167;-62
2021/07/19 00:51:29;;;;;;;20.57;4.50;;;;;;;18.42;74.95;98799.81;2247553;78;21123;-64
2021/07/19 00:54:30;;;;;;;17.65;4.17;;;;;;;18.37;74.81;98802.05;2243518;79;20989;-62
2021/07/19 00:57:31;;;;;;;15.38;4.53;;;;;;;18.31;74.87;98806.12;2239968;79;21019;-62
2021/07/19 01:00:31;;;;;;;15.70;4.20;;;;;;;18.23;76.19;98804.69;2218320;79;21509;-63
2021/07/19 01:03:32;;;;;;;19.02;4.97;;;;;;;18.20;75.08;98802.80;2208752;79;21034;-62
2021/07/19 01:06:32;;;;;;;18.30;4.80;;;;;;;18.13;75.66;98801.19;2245094;78;20973;-63
2021/07/19 01:09:33;;;;;;;14.63;4.17;;;;;;;18.07;75.40;98808.41;2208974;79;20968;-62
2021/07/19 01:12:33;;;;;;;21.77;5.12;;;;;;;17.99;75.93;98805.97;2212453;79;20988;-62
2021/07/19 01:15:33;;;;;;;17.55;4.85;;;;;;;17.99;76.10;98805.14;2234723;79;20989;-62
2021/07/19 01:18:34;;;;;;;16.73;4.60;;;;;;;17.96;75.48;98809.41;2217764;80;21523;-63
2021/07/19 01:21:34;;;;;;;20.90;4.65;;;;;;;17.96;76.03;98808.09;2209001;80;21043;-62
2021/07/19 01:24:35;;;;;;;21.10;5.50;;;;;;;17.93;75.42;98803.03;2217929;80;21134;-63
2021/07/19 01:27:35;;;;;;;20.05;4.85;;;;;;;17.89;75.64;98813.08;2218175;80;21086;-62
2021/07/19 01:30:36;;;;;;;15.65;4.95;;;;;;;17.82;75.59;98818.09;2214322;80;21020;-63
2021/07/19 01:33:37;;;;;;;16.40;4.70;;;;;;;17.78;76.21;98813.22;2248220;78;21024;-62
2021/07/19 01:36:37;;;;;;;20.95;5.37;;;;;;;17.70;76.11;98818.38;2248920;78;20981;-62
2021/07/19 01:39:38;;;;;;;21.57;5.30;;;;;;;17.60;76.21;98820.55;2204763;80;21005;-62
2021/07/19 01:42:38;;;;;;;19.32;4.90;;;;;;;17.56;76.39;98828.42;2200049;80;20989;-62
2021/07/19 01:45:39;;;;;;;16.42;4.75;;;;;;;17.55;77.37;98831.22;2207673;80;21013;-64
2021/07/19 01:48:39;;;;;;;17.95;5.15;;;;;;;17.53;76.82;98828.70;2217730;80;20992;-62
2021/07/19 01:51:40;;;;;;;20.05;5.95;;;;;;;17.52;77.13;98836.30;2198116;80;21056;-62
2021/07/19 01:54:41;;;;;;;20.12;5.25;;;;;;;17.49;76.96;98824.65;2248265;78;20989;-63
2021/07/19 01:57:41;;;;;;;21.27;5.35;;;;;;;17.44;77.25;98838.80;2212105;79;21549;-63
2021/07/19 02:00:42;;;;;;;18.12;5.10;;;;;;;17.41;77.19;98835.95;2209528;80;20996;-62
2021/07/19 02:03:42;;;;;;;19.23;5.40;;;;;;;17.43;77.14;98836.64;2211895;80;21079;-62
2021/07/19 02:06:43;;;;;;;19.90;5.75;;;;;;;17.47;77.22;98836.72;2202656;80;21057;-62
2021/07/19 02:09:43;;;;;;;16.40;5.22;;;;;;;17.53;76.96;98843.76;2203704;80;20978;-62
2021/07/19 02:12:43;;;;;;;24.35;6.22;;;;;;;17.47;77.15;98839.88;2218746;78;21448;-63
2021/07/19 02:15:44;;;;;;;18.52;5.85;;;;;;;17.42;77.18;98842.91;2212693;80;21020;-63
2021/07/19 02:18:45;;;;;;;19.27;5.30;;;;;;;17.41;77.20;98835.95;2246332;78;21020;-63
2021/07/19 02:21:45;;;;;;;20.43;5.05;;;;;;;17.41;77.33;98835.09;2205185;79;21044;-62
2021/07/19 02:24:46;;;;;;;19.00;5.72;;;;;;;17.36;77.47;98842.14;2205102;80;20996;-62
2021/07/19 02:27:46;;;;;;;19.62;5.50;;;;;;;17.30;77.51;98843.52;2216680;80;21545;-63
2021/07/19 02:30:47;;;;;;;19.12;5.72;;;;;;;17.23;78.10;98840.23;2239833;78;21028;-63
2021/07/19 02:33:47;;;;;;;21.57;6.30;;;;;;;17.14;78.34;98844.54;2217372;79;21008;-63
2021/07/19 02:36:48;;;;;;;21.12;6.20;;;;;;;17.11;78.84;98846.97;2211959;80;21015;-63
2021/07/19 02:39:49;;;;;;;23.18;6.12;;;;;;;17.11;78.38;98844.78;2247101;78;20999;-61
2021/07/19 02:42:49;;;;;;;22.42;5.90;;;;;;;17.09;78.52;98840.94;2218692;78;21000;-62
2021/07/19 02:45:50;;;;;;;20.30;6.10;;;;;;;17.07;78.74;98842.91;2211559;80;21036;-62
2021/07/19 02:48:50;;;;;;;20.20;5.58;;;;;;;17.05;78.58;98842.68;2244214;79;20980;-62
2021/07/19 02:51:51;;;;;;;22.15;6.05;;;;;;;17.02;78.65;98845.10;2216772;79;21556;-63
2021/07/19 02:54:52;;;;;;;24.60;6.65;;;;;;;17.00;79.17;98846.23;2199717;80;21479;-62
2021/07/19 02:57:53;;;;;;;23.35;6.47;;;;;;;17.05;79.49;98841.36;2243008;79;21031;-62
2021/07/19 03:00:53;;;;;;;23.65;6.50;;;;;;;17.13;79.57;98838.88;2213185;79;21047;-63
2021/07/19 03:03:54;;;;;;;19.50;6.40;;;;;;;17.19;79.77;98844.95;2210277;80;20992;-64
2021/07/19 03:06:54;;;;;;;23.32;6.60;;;;;;;17.26;79.27;98845.27;2230557;79;21484;-63
2021/07/19 03:09:55;;;;;;;23.55;6.72;;;;;;;17.29;78.95;98847.14;2253121;78;21521;-62
2021/07/19 03:12:57;;;;;;;21.60;7.28;;;;;;;17.31;79.22;98849.65;2208756;80;21039;-63
2021/07/19 03:15:58;;;;;;;24.70;7.30;;;;;;;17.31;79.61;98849.19;2197617;80;21000;-62
2021/07/19 03:18:58;;;;;;;21.10;7.00;;;;;;;17.32;78.82;98850.01;2208188;80;21089;-62
2021/07/19 03:21:59;;;;;;;20.95;6.95;;;;;;;17.30;79.02;98850.64;2203408;80;21000;-64
2021/07/19 03:24:59;;;;;;;24.25;7.40;;;;;;;17.31;78.82;98850.50;2203611;80;21859;-64
2021/07/19 03:28:00;;;;;;;20.40;7.15;;;;;;;17.33;79.13;98856.17;2203901;80;21083;-64
2021/07/19 03:31:00;;;;;;;24.52;8.08;;;;;;;17.36;78.61;98858.05;2209428;80;21011;-63
2021/07/19 03:34:01;;;;;;;22.77;8.35;;;;;;;17.40;78.42;98850.17;2205609;80;21079;-64
2021/07/19 03:37:01;;;;;;;23.05;8.45;;;;;;;17.47;78.42;98850.48;2205148;80;20988;-64
2021/07/19 03:40:01;;;;;;;24.07;8.65;;;;;;;17.48;78.24;98856.97;2210520;80;21609;-62
2021/07/19 03:43:02;;;;;;;25.12;8.20;;;;;;;17.50;78.45;98852.84;2208527;80;21106;-64
2021/07/19 03:46:03;;;;;;;23.07;8.63;;;;;;;17.53;78.52;98857.02;2203873;80;21012;-63
2021/07/19 03:49:03;;;;;;;21.68;7.53;;;;;;;17.54;78.36;98854.25;2202740;80;21074;-63
2021/07/19 03:52:04;;;;;;;25.17;8.15;;;;;;;17.61;78.03;98857.17;2216404;80;20992;-63
2021/07/19 03:55:04;;;;;;;27.42;9.28;;;;;;;17.66;78.07;98855.78;2200871;80;21356;-62
2021/07/19 03:58:04;;;;;;;22.90;8.00;;;;;;;17.70;77.83;98852.38;2205893;80;21559;-64
2021/07/19 04:01:05;;;;;;;23.83;8.30;;;;;;;17.73;77.44;98858.73;2214586;79;21483;-63
2021/07/19 04:04:07;;;;;;;25.32;8.78;;;;;;;17.72;77.37;98862.36;2214942;80;21026;-62
2021/07/19 04:07:08;;;;;;;26.95;8.45;;;;;;;17.73;77.42;98860.53;2217752;80;21015;-61
2021/07/19 04:10:08;;;;;;;23.77;7.90;;;;;;;17.75;77.54;98870.53;2211675;80;21579;-62
2021/07/19 04:13:08;;;;;;;24.72;9.03;;;;;;;17.77;77.63;98873.87;2218082;79;21016;-62
2021/07/19 04:16:09;;;;;;;22.37;8.40;;;;;;;17.80;77.67;98873.12;2216519;80;21039;-62
2021/07/19 04:19:09;;;;;;;26.27;8.98;;;;;;;17.90;77.59;98875.81;2216079;80;21008;-62
2021/07/19 04:22:10;;;;;;;24.50;9.30;;;;;;;17.97;77.02;98874.75;2206151;80;20986;-62
2021/07/19 04:25:10;;;;;;;23.87;9.08;;;;;;;17.99;76.46;98870.98;2212990;80;21025;-62
2021/07/19 04:28:11;;;;;;;26.82;9.23;;;;;;;17.96;76.31;98867.29;2213617;79;20981;-63
2021/07/19 04:31:11;;;;;;;24.90;8.70;;;;;;;17.99;76.64;98872.31;2213700;80;21506;-63
2021/07/19 04:34:11;;;;;;;23.22;8.25;;;;;;;18.07;76.58;98880.89;2245648;78;21495;-62
2021/07/19 04:37:12;;;;;;;25.57;8.40;;;;;;;18.18;76.32;98874.61;2217748;78;21072;-62
2021/07/19 04:40:13;;;;;;;25.12;9.08;;;;;;;18.33;76.08;98877.19;2211882;80;21002;-62
2021/07/19 04:43:13;;;;;;;24.27;9.28;;;;;;;18.40;75.95;98882.75;2246917;78;21102;-62
2021/07/19 04:46:14;;;;;;;22.25;8.88;;;;;;;18.43;75.14;98878.50;2213938;80;21023;-62
2021/07/19 04:49:14;;;;;;;25.85;9.10;;;;;;;18.38;75.26;98872.77;2244361;79;20988;-63
2021/07/19 04:52:15;;;;;;;20.97;7.85;;;;;;;18.45;75.37;98870.39;2242449;79;21030;-62
2021/07/19 04:55:15;;;;;;;22.73;8.05;;;;;;;18.55;75.11;98871.67;2217325;79;21514;-63
2021/07/19 04:58:15;;;;;;;24.80;8.78;;;;;;;18.59;74.36;98873.92;2213011;80;20996;-63
2021/07/19 05:01:16;;;;;;;24.98;9.58;;;;;;;18.64;74.40;98867.67;2247170;78;21033;-63
2021/07/19 05:04:17;;;;;;;25.32;8.58;;;;;;;18.93;74.30;98863.28;2217108;80;21023;-63
2021/07/19 05:07:17;;;;;;;24.67;9.43;;;;;;;19.12;73.37;98864.53;2250364;79;21114;-63
2021/07/19 05:10:19;;;;;;;22.35;9.23;;;;;;;19.07;72.60;98865.95;2210659;80;21115;-63
2021/07/19 05:13:20;;;;;;;23.60;8.78;;;;;;;19.04;72.54;98865.25;2200064;80;21017;-62
2021/07/19 05:16:21;;;;;;;26.20;8.80;;;;;;;19.01;72.45;98865.55;2202677;80;21000;-63
2021/07/19 05:19:21;;;;;;;22.25;8.23;;;;;;;19.14;72.00;98874.52;2210132;80;21021;-62
2021/07/19 05:22:22;;;;;;;23.70;8.90;;;;;;;19.38;71.18;98877.97;2200371;80;21019;-64
2021/07/19 05:25:23;;;;;;;23.77;9.13;;;;;;;19.73;71.56;98876.84;2213330;80;21034;-62
2021/07/19 05:28:23;;;;;;;25.72;9.13;;;;;;;19.98;70.93;98871.77;2213473;80;20984;-62
2021/07/19 05:31:24;;;;;;;22.52;7.67;;;;;;;20.17;69.41;98875.61;2209822;80;21002;-63
2021/07/19 05:34:24;;;;;;;24.90;9.20;;;;;;;20.15;68.66;98872.75;2209159;80;21066;-63
2021/07/19 05:37:25;;;;;;;20.45;7.78;;;;;;;20.23;68.36;98880.81;2245946;78;21006;-63
2021/07/19 05:40:25;;;;;;;29.10;8.73;;;;;;;20.39;67.64;98875.59;2239411;79;21579;-63
2021/07/19 05:43:26;;;;;;;23.73;8.08;;;;;;;20.69;67.95;98871.34;2215041;79;21581;-62
2021/07/19 05:46:26;;;;;;;22.95;8.38;;;;;;;21.01;67.96;98877.33;2213062;80;21027;-64
2021/07/19 05:49:27;;;;;;;22.80;8.58;;;;;;;21.19;66.64;98878.59;2247538;78;20992;-65
2021/07/19 05:52:28;;;;;;;23.92;8.55;;;;;;;21.21;65.12;98883.25;2216935;78;21678;-63
2021/07/19 05:55:29;;;;;;;23.85;8.38;;;;;;;21.04;65.56;98881.52;2209785;80;21059;-62
2021/07/19 05:58:30;;;;;;;23.52;8.20;;;;;;;21.13;65.86;98878.39;2262620;77;21020;-67
2021/07/19 06:01:31;;;;;;;21.87;7.73;;;;;;;21.20;64.44;98875.42;2290990;77;20993;-65
2021/07/19 06:04:31;;;;;;;21.95;8.23;;;;;;;21.26;64.95;98878.77;2245779;78;21573;-64
2021/07/19 06:07:32;;;;;;;23.30;8.05;;;;;;;21.36;63.72;98878.13;2255298;78;21004;-64
2021/07/19 06:10:32;;;;;;;24.00;8.35;;;;;;;21.28;63.06;98888.80;2254562;78;20984;-64
2021/07/19 06:13:32;;;;;;;23.77;9.08;;;;;;;21.19;63.12;98891.92;2260293;78;21105;-63
2021/07/19 06:16:33;;;;;;;21.55;7.83;;;;;;;21.06;63.29;98892.38;2253279;78;20953;-62
2021/07/19 06:19:33;;;;;;;25.15;8.60;;;;;;;21.06;63.38;98899.52;2250768;78;21039;-63
2021/07/19 06:22:34;;;;;;;22.57;8.23;;;;;;;20.94;63.87;98897.12;2260043;78;21106;-62
2021/07/19 06:25:35;;;;;;;21.60;7.85;;;;;;;20.80;63.20;98894.21;2259518;78;21021;-64
2021/07/19 06:28:36;;;;;;;24.70;8.80;;;;;;;20.63;64.04;98901.23;2232492;78;21542;-62
2021/07/19 06:31:36;;;;;;;27.82;8.90;;;;;;;20.82;64.70;98890.41;2204443;80;21004;-62
2021/07/19 06:34:37;;;;;;;22.22;7.50;;;;;;;21.04;64.15;98894.34;2212143;80;20984;-63
2021/07/19 06:37:37;;;;;;;24.65;8.70;;;;;;;21.16;63.96;98892.25;2210785;80;21063;-61
2021/07/19 06:40:38;;;;;;;24.27;7.75;;;;;;;21.45;62.24;98888.36;2205956;80;21099;-64
2021/07/19 06:43:38;;;;;;;21.37;7.78;;;;;;;21.62;62.01;98891.44;2209757;80;21024;-62
2021/07/19 06:46:39;;;;;;;25.57;8.40;;;;;;;21.80;61.71;98889.95;2199440;80;21451;-63
2021/07/19 06:49:39;;;;;;;22.53;8.40;;;;;;;21.87;61.20;98887.98;2207850;80;21472;-61
2021/07/19 06:52:40;;;;;;;24.03;8.60;;;;;;;22.01;60.61;98889.15;2204070;80;21023;-64
2021/07/19 06:55:40;;;;;;;21.93;8.35;;;;;;;22.05;60.86;98891.34;2226884;78;21009;-67
2021/07/19 06:58:41;;;;;;;22.73;7.90;;;;;;;22.08;59.87;98880.33;2242212;79;21026;-62
2021/07/19 07:01:41;;;;;;;23.38;7.92;;;;;;;22.21;59.29;98884.31;2211598;79;20978;-62
2021/07/19 07:04:41;;;;;;;24.37;7.97;;;;;;;22.26;59.36;98879.32;2244719;79;20977;-63
2021/07/19 07:07:43;;;;;;;26.27;8.47;;;;;;;22.20;58.45;98884.00;2228561;79;20994;-62
2021/07/19 07:10:44;;;;;;;21.65;8.33;;;;;;;22.32;58.45;98900.02;2258397;79;21514;-62
2021/07/19 07:13:44;;;;;;;22.40;7.80;;;;;;;22.38;58.46;98896.70;2255437;79;21119;-61
2021/07/19 07:16:45;;;;;;;22.07;7.93;;;;;;;22.48;58.16;98887.17;2234996;79;20995;-61
2021/07/19 07:19:45;;;;;;;21.43;8.10;;;;;;;22.57;58.18;98892.00;2231925;79;21073;-61
2021/07/19 07:22:46;;;;;;;22.37;8.33;;;;;;;22.69;56.46;98901.86;2214022;79;21009;-61
2021/07/19 07:25:47;;;;;;;21.03;8.20;;;;;;;22.75;57.08;98897.98;2216702;80;21549;-62
2021/07/19 07:28:47;;;;;;;28.20;9.00;;;;;;;22.89;56.01;98912.51;2234711;79;21005;-62
2021/07/19 07:31:48;;;;;;;22.03;7.90;;;;;;;22.89;56.33;98896.98;2215870;80;20996;-64
2021/07/19 07:34:48;;;;;;;23.50;7.67;;;;;;;22.88;55.41;98914.02;2230382;79;21028;-65
2021/07/19 07:37:49;;;;;;;20.80;7.57;;;;;;;22.83;56.46;98904.66;2209149;80;21027;-61
2021/07/19 07:40:51;;;;;;;22.87;7.93;;;;;;;22.89;55.55;98905.83;2232189;79;21531;-63
2021/07/19 07:43:51;;;;;;;22.48;7.75;;;;;;;23.06;56.00;98904.42;2187982;80;21047;-62
2021/07/19 07:46:52;;;;;;;22.90;8.07;;;;;;;23.37;55.29;98896.48;2232040;79;21093;-62
2021/07/19 07:49:53;;;;;;;23.67;8.10;;;;;;;23.74;54.68;98898.97;2211070;79;21228;-64
2021/07/19 07:52:53;;;;;;;20.93;8.33;;;;;;;23.81;53.51;98904.46;2248946;78;21044;-66
2021/07/19 07:55:54;;;;;;;23.50;7.30;;;;;;;23.81;53.51;98904.46;2241572;79;21010;-67
2021/07/19 07:58:54;;;;;;;22.33;7.83;;;;;;;23.96;52.11;98912.06;2240994;79;21059;-66
2021/07/19 08:01:55;;;;;;;19.77;6.87;;;;;;;24.08;52.96;98913.85;2234082;79;21006;-64
2021/07/19 08:04:55;;;;;;;21.63;7.10;;;;;;;24.09;52.99;98899.94;2286116;77;20996;-69
2021/07/19 08:07:56;;;;;;;21.33;6.57;;;;;;;24.30;52.87;98903.30;2234262;78;21025;-67
2021/07/19 08:10:56;;;;;;;20.63;6.90;;;;;;;24.44;51.03;98904.33;2247985;79;20989;-65
2021/07/19 08:13:57;;;;;;;19.60;7.07;;;;;;;24.53;50.76;98909.97;2250285;79;20981;-62
2021/07/19 08:16:58;;;;;;;20.20;7.28;;;;;;;24.55;49.72;98906.09;2245105;78;21000;-69
2021/07/19 08:19:58;;;;;;;19.13;6.70;;;;;;;24.55;49.28;98911.45;2265675;77;21053;-70
2021/07/19 08:22:59;;;;;;;21.33;7.00;;;;;;;24.68;48.76;98904.64;2223247;79;21044;-68
2021/07/19 08:25:59;;;;;;;18.27;6.70;;;;;;;24.76;46.94;98905.91;2218066;79;21035;-68
2021/07/19 08:29:00;;;;;;;20.40;6.70;;;;;;;24.71;44.53;98913.17;2217196;79;21073;-67
2021/07/19 08:32:00;;;;;;;17.73;5.77;;;;;;;24.63;45.32;98910.56;2212207;79;21074;-62
2021/07/19 08:35:00;;;;;;;18.67;6.43;;;;;;;24.78;44.26;98900.36;2217427;79;21498;-66
2021/07/19 08:38:02;;;;;;;18.17;6.40;;;;;;;25.14;44.48;98900.97;2195874;79;21507;-70
2021/07/19 08:41:02;;;;;;;19.67;6.53;;;;;;;25.28;43.72;98903.33;2205915;79;21582;-68
2021/07/19 08:44:06;;;;;;;17.83;5.93;;;;;;;25.42;42.20;98906.53;2198905;80;21069;-65
2021/07/19 08:47:05;;;;;;;20.35;6.33;;;;;;;25.30;41.66;98909.33;2194216;80;21575;-64
2021/07/19 08:50:06;;;;;;;19.30;6.00;;;;;;;25.17;41.44;98901.45;2206663;80;21046;-63
2021/07/19 08:53:06;;;;;;;19.43;6.20;;;;;;;25.28;41.17;98904.67;2239231;79;21006;-62
2021/07/19 08:56:07;;;;;;;20.70;6.00;;;;;;;25.27;42.57;98901.66;2236256;78;20987;-65
2021/07/19 08:59:07;;;;;;;18.73;6.17;;;;;;;25.35;40.22;98906.97;2234540;79;21038;-64
2021/07/19 09:02:08;;;;;;;18.87;6.13;;;;;;;25.41;40.56;98921.83;2241838;79;21461;-61
2021/07/19 09:05:08;;;;;;;18.00;6.17;;;;;;;25.56;41.56;98902.17;2245233;78;21508;-64
2021/07/19 09:08:09;;;;;;;21.23;7.10;;;;;;;25.53;39.60;98909.23;2241700;79;21025;-71
2021/07/19 09:11:09;;;;;;;20.40;6.73;;;;;;;25.50;41.92;98902.41;2235449;79;21051;-66
2021/07/19 09:14:10;;;;;;;20.03;6.50;;;;;;;25.50;40.50;98907.78;2238623;79;21047;-64
2021/07/19 09:17:10;;;;;;;18.63;6.17;;;;;;;25.42;41.02;98899.83;2219412;79;21022;-62
2021/07/19 09:20:11;;;;;;;17.83;6.13;;;;;;;25.45;41.69;98894.59;2232922;79;20994;-65
2021/07/19 09:23:11;;;;;;;20.37;6.53;;;;;;;25.55;40.36;98904.52;2237487;79;20994;-62
2021/07/19 09:26:11;;;;;;;19.10;6.83;;;;;;;25.47;40.77;98898.73;2199174;80;21530;-62
2021/07/19 09:29:12;;;;;;;18.73;6.27;;;;;;;25.63;42.22;98893.68;2210686;80;21016;-67
2021/07/19 09:32:12;;;;;;;19.53;6.87;;;;;;;25.82;41.23;98896.25;2206199;80;21003;-65
2021/07/19 09:35:13;;;;;;;21.27;6.30;;;;;;;25.76;40.37;98892.47;2203594;80;21031;-65
2021/07/19 09:38:13;;;;;;;20.43;6.40;;;;;;;25.80;41.65;98882.69;2204922;80;21087;-63
2021/07/19 09:41:14;;;;;;;19.43;6.63;;;;;;;25.98;41.08;98893.01;2204097;80;20981;-62
2021/07/19 09:44:14;;;;;;;19.80;6.67;;;;;;;26.02;41.46;98883.05;2204038;80;21480;-63
2021/07/19 09:47:15;;;;;;;19.33;6.17;;;;;;;26.18;41.82;98879.79;2205665;80;21522;-64
2021/07/19 09:50:16;;;;;;;18.13;6.73;;;;;;;26.52;40.44;98875.49;2204034;80;21103;-64
2021/07/19 09:53:16;;;;;;;19.40;6.90;;;;;;;26.53;41.50;98881.20;2210814;80;21136;-66
2021/07/19 09:56:16;;;;;;;19.90;6.30;;;;;;;26.48;41.69;98884.97;2210774;80;21024;-64
2021/07/19 09:59:17;;;;;;;22.67;6.57;;;;;;;26.40;40.42;98877.89;2210494;80;21082;-63
2021/07/19 10:02:17;;;;;;;19.37;7.20;;;;;;;26.53;40.88;98865.06;2213696;80;20975;-64
2021/07/19 10:05:18;;;;;;;18.47;6.13;;;;;;;26.77;40.62;98870.53;2209607;80;21529;-63
2021/07/19 10:08:18;;;;;;;19.97;6.63;;;;;;;26.60;40.15;98872.14;2210463;80;21523;-62
2021/07/19 10:11:18;;;;;;;19.50;6.57;;;;;;;26.68;40.53;98864.94;2210848;80;20979;-63
2021/07/19 10:14:19;;;;;;;20.53;6.57;;;;;;;26.79;41.25;98861.73;2213298;80;20991;-67
2021/07/19 10:17:19;;;;;;;19.93;6.57;;;;;;;26.97;40.12;98865.27;2210220;80;20991;-64
2021/07/19 10:20:20;;;;;;;20.50;6.70;;;;;;;27.11;39.46;98861.61;2214785;80;20964;-62
2021/07/19 10:23:20;;;;;;;19.63;6.57;;;;;;;27.30;38.81;98860.55;2209180;80;20944;-63
2021/07/19 10:26:21;;;;;;;20.50;6.70;;;;;;;26.75;39.05;98849.70;2210390;80;21430;-62
2021/07/19 10:29:21;;;;;;;21.77;6.83;;;;;;;26.23;41.30;98863.89;2208424;80;21513;-64
2021/07/19 10:32:22;;;;;;;18.57;6.30;;;;;;;26.52;41.35;98850.80;2211421;80;21557;-61
2021/07/19 10:35:23;;;;;;;20.65;7.03;;;;;;;26.86;40.49;98838.39;2210230;80;21099;-63
2021/07/19 10:38:26;;;;;;;22.52;6.33;;;;;;;26.96;39.46;98842.07;2211349;80;20979;-67
2021/07/19 10:41:26;;;;;;;22.00;7.03;;;;;;;26.79;40.72;98852.33;2211768;80;21030;-67
2021/07/19 10:44:28;;;;;;;21.00;6.72;;;;;;;26.94;40.86;98855.73;2208824;80;21560;-61
2021/07/19 10:47:28;;;;;;;22.13;7.70;;;;;;;27.10;40.18;98851.05;2210406;80;20972;-64
2021/07/19 10:50:29;;;;;;;22.33;7.03;;;;;;;27.22;39.79;98843.22;2209883;80;21015;-65
2021/07/19 10:53:29;;;;;;;21.53;8.00;;;;;;;26.75;40.08;98837.60;2209357;80;20987;-66
2021/07/19 10:56:30;;;;;;;21.23;6.87;;;;;;;26.88;40.02;98850.30;2212599;80;21019;-66
2021/07/19 10:59:30;;;;;;;20.40;7.30;;;;;;;26.73;39.40;98831.60;2208573;80;20999;-66
2021/07/19 11:02:31;;;;;;;19.67;7.70;;;;;;;26.85;40.88;98831.87;2209450;80;20975;-63
2021/07/19 11:05:31;;;;;;;22.43;7.90;;;;;;;27.35;39.87;98835.22;2210330;80;21555;-66
2021/07/19 11:08:32;;;;;;;20.93;6.83;;;;;;;27.39;39.45;98827.05;2209487;80;21613;-67
2021/07/19 11:11:32;;;;;;;21.47;7.77;;;;;;;27.83;40.83;98824.88;2210221;80;21028;-68
2021/07/19 11:14:33;;;;;;;21.50;7.67;;;;;;;27.73;40.13;98821.73;2210382;80;21090;-66
2021/07/19 11:17:33;;;;;;;20.43;7.03;;;;;;;27.73;40.80;98813.16;2210562;80;21003;-63
2021/07/19 11:20:33;;;;;;;19.60;6.87;;;;;;;27.41;39.06;98822.31;2212851;80;20991;-61
2021/07/19 11:23:34;;;;;;;21.83;7.73;;;;;;;27.21;39.08;98818.67;2209652;80;21085;-63
2021/07/19 11:26:35;;;;;;;22.32;7.50;;;;;;;27.68;39.42;98808.88;2210855;80;21004;-63
2021/07/19 11:29:36;;;;;;;24.30;7.80;;;;;;;28.22;40.42;98810.30;2208929;80;20992;-65
2021/07/19 11:32:36;;;;;;;19.70;7.33;;;;;;;28.48;38.65;98808.91;2212063;80;21038;-62
2021/07/19 11:35:36;;;;;;;21.70;7.93;;;;;;;27.96;38.16;98805.20;2212031;80;21110;-65
2021/07/19 11:38:37;;;;;;;24.40;7.93;;;;;;;27.65;38.51;98811.99;2210157;80;20988;-63
2021/07/19 11:41:40;;;;;;;23.77;7.50;;;;;;;27.83;39.70;98806.02;2210288;80;20991;-68
2021/07/19 11:44:40;;;;;;;21.25;6.92;;;;;;;27.96;37.01;98798.45;2194309;80;21011;-65
2021/07/19 11:47:42;;;;;;;20.02;6.78;;;;;;;28.24;37.54;98788.00;2212698;80;21102;-62
2021/07/19 11:50:42;;;;;;;19.23;6.53;;;;;;;28.40;37.72;98798.86;2214867;80;21525;-66
2021/07/19 11:53:43;;;;;;;21.62;7.12;;;;;;;28.53;37.40;98796.13;2211103;80;21066;-66
2021/07/19 11:56:44;;;;;;;21.17;6.70;;;;;;;28.83;37.44;98787.08;2209610;80;21033;-66
2021/07/19 11:59:46;;;;;;;20.20;7.13;;;;;;;29.36;38.15;98779.77;2211715;80;21019;-63
2021/07/19 12:02:46;;;;;;;24.35;7.22;;;;;;;29.50;36.99;98771.89;2209641;80;21014;-64
2021/07/19 12:05:47;;;;;;;19.43;7.03;;;;;;;29.54;37.44;98770.95;2209629;80;20990;-63
2021/07/19 12:08:47;;;;;;;21.00;7.43;;;;;;;28.94;35.79;98780.16;2210644;80;21007;-62
2021/07/19 12:11:48;;;;;;;23.03;7.00;;;;;;;28.67;37.00;98782.95;2211470;80;20998;-62
2021/07/19 12:14:49;;;;;;;21.13;7.20;;;;;;;28.49;37.01;98780.09;2211900;80;20999;-63
2021/07/19 12:17:49;;;;;;;18.60;7.25;;;;;;;28.50;36.97;98774.98;2213723;80;20980;-63
2021/07/19 12:20:50;;;;;;;20.47;7.70;;;;;;;28.68;36.50;98768.42;2214592;80;21115;-66
2021/07/19 12:23:50;;;;;;;22.37;7.93;;;;;;;28.89;35.79;98769.16;2216656;80;21019;-61
2021/07/19 12:26:53;;;;;;;23.77;7.47;;;;;;;28.76;35.45;98768.73;2214853;80;20991;-64
2021/07/19 12:29:53;;;;;;;20.90;7.20;;;;;;;28.55;37.25;98763.05;2186274;80;20969;-64
2021/07/19 12:32:53;;;;;;;23.40;7.70;;;;;;;28.04;37.98;98759.17;2205432;80;21000;-72
2021/07/19 12:35:54;;;;;;;21.20;7.37;;;;;;;27.42;39.14;98763.36;2202946;80;21003;-66
2021/07/19 12:38:54;;;;;;;21.07;7.03;;;;;;;27.09;39.21;98764.59;2208602;80;21003;-70
2021/07/19 12:41:54;;;;;;;19.40;6.83;;;;;;;26.87;39.57;98758.00;2204275;80;21058;-72
2021/07/19 12:44:55;;;;;;;22.73;7.07;;;;;;;27.13;39.77;98765.86;2210384;80;21062;-67
2021/07/19 12:47:55;;;;;;;22.70;7.00;;;;;;;27.10;39.53;98759.53;2209843;80;21059;-71
2021/07/19 12:50:56;;;;;;;24.43;7.33;;;;;;;26.90;40.21;98754.91;2210952;80;21537;-72
2021/07/19 12:53:56;;;;;;;24.80;7.13;;;;;;;26.43;40.53;98757.84;2209320;80;20999;-72
2021/07/19 12:56:57;;;;;;;24.23;7.57;;;;;;;26.18;41.52;98750.25;2210465;80;21043;-72
2021/07/19 12:59:57;;;;;;;22.50;7.83;;;;;;;26.18;42.03;98752.94;2209647;80;21006;-72
2021/07/19 13:02:58;;;;;;;24.00;7.77;;;;;;;26.02;41.68;98744.67;2209504;80;21024;-69
2021/07/19 13:05:58;;;;;;;25.47;7.53;;;;;;;26.71;42.16;98738.19;2214268;80;21046;-73
2021/07/19 13:08:58;;;;;;;20.57;8.07;;;;;;;27.40;41.34;98733.66;2215447;80;20963;-71
2021/07/19 13:11:59;;;;;;;21.17;7.87;;;;;;;27.87;39.46;98725.58;2212814;80;20967;-71
2021/07/19 13:14:59;;;;;;;20.93;7.77;;;;;;;28.14;39.38;98725.91;2211808;80;21498;-70
2021/07/19 13:18:00;;;;;;;20.37;7.63;;;;;;;27.80;39.73;98722.88;2209167;80;21591;-71
2021/07/19 13:21:00;;;;;;;24.50;7.80;;;;;;;27.28;39.43;98733.38;2206835;80;20991;-71
2021/07/19 13:24:01;;;;;;;22.65;8.15;;;;;;;27.44;40.15;98721.41;2204897;80;20967;-68
2021/07/19 13:27:01;;;;;;;20.77;8.07;;;;;;;27.95;40.56;98718.11;2206515;80;21006;-65
2021/07/19 13:30:02;;;;;;;20.03;8.03;;;;;;;28.35;38.23;98718.06;2206499;80;21118;-68
2021/07/19 13:33:03;;;;;;;21.73;8.20;;;;;;;28.44;37.58;98716.49;2207794;80;21459;-71
2021/07/19 13:36:04;;;;;;;22.10;8.10;;;;;;;28.56;37.95;98718.85;2213715;80;21569;-68
2021/07/19 13:39:07;;;;;;;20.13;7.67;;;;;;;28.47;38.18;98709.32;2214462;80;21033;-64
2021/07/19 13:42:08;;;;;;;23.15;8.38;;;;;;;28.18;37.41;98714.98;2207426;80;21079;-64
2021/07/19 13:45:09;;;;;;;21.75;8.50;;;;;;;28.05;38.98;98707.47;2198007;80;21068;-63
2021/07/19 13:48:10;;;;;;;21.63;8.50;;;;;;;28.07;37.30;98710.23;2208990;80;20979;-70
2021/07/19 13:51:10;;;;;;;22.53;9.40;;;;;;;28.20;37.92;98710.73;2212776;80;20968;-63
2021/07/19 13:54:11;;;;;;;20.60;8.80;;;;;;;28.44;36.55;98709.22;2210463;80;20996;-64
2021/07/19 13:57:11;;;;;;;22.57;8.37;;;;;;;28.66;36.89;98711.16;2209642;80;21079;-63